createdAt,value
2018-07-28T00:01:08.961Z,24.87
2018-07-28T00:03:35.711Z,24.83
2018-07-28T00:06:02.500Z,24.81
2018-07-28T00:08:29.388Z,24.79
2018-07-28T00:10:56.173Z,24.76
2018-07-28T00:13:22.936Z,24.73
2018-07-28T00:15:49.684Z,24.69
2018-07-28T00:18:16.436Z,24.66
2018-07-28T00:20:43.248Z,24.64
2018-07-28T00:23:10.304Z,24.59
2018-07-28T00:25:37.502Z,24.55
2018-07-28T00:28:05.180Z,24.54
2018-07-28T00:30:31.917Z,24.52
2018-07-28T00:32:58.672Z,24.49
2018-07-28T00:35:25.425Z,24.45
2018-07-28T00:37:52.173Z,24.44
2018-07-28T00:40:18.932Z,24.43
2018-07-28T00:42:45.833Z,24.37
2018-07-28T00:45:12.580Z,24.35
2018-07-28T00:47:39.344Z,24.33
2018-07-28T00:50:06.648Z,24.29
2018-07-28T00:52:33.394Z,24.28
2018-07-28T00:55:00.146Z,24.26
2018-07-28T00:57:26.905Z,24.22
2018-07-28T00:59:53.664Z,24.20
2018-07-28T01:02:20.416Z,24.14
2018-07-28T01:04:47.180Z,24.12
2018-07-28T01:07:13.960Z,24.06
2018-07-28T01:09:40.715Z,24.02
2018-07-28T01:12:07.469Z,23.99
2018-07-28T01:14:34.229Z,23.96
2018-07-28T01:17:00.982Z,23.94
2018-07-28T01:19:27.736Z,23.88
2018-07-28T01:21:54.486Z,23.84
2018-07-28T01:24:21.240Z,23.81
2018-07-28T01:26:47.968Z,23.77
2018-07-28T01:29:15.886Z,23.77
2018-07-28T01:31:42.634Z,23.77
2018-07-28T01:34:09.419Z,23.73
2018-07-28T01:36:36.164Z,23.70
2018-07-28T01:39:05.052Z,23.66
2018-07-28T01:41:31.781Z,23.62
2018-07-28T01:43:58.548Z,23.59
2018-07-28T01:46:25.291Z,23.58
2018-07-28T01:48:52.033Z,23.54
2018-07-28T01:51:18.760Z,23.51
2018-07-28T01:53:45.588Z,23.49
2018-07-28T01:56:12.355Z,23.47
2018-07-28T01:58:39.113Z,23.46
2018-07-28T02:01:05.877Z,23.47
2018-07-28T02:06:22.954Z,23.44
2018-07-28T02:08:49.952Z,23.41
2018-07-28T02:11:16.725Z,23.37
2018-07-28T02:13:43.504Z,23.33
2018-07-28T02:16:10.525Z,23.31
2018-07-28T02:18:37.309Z,23.28
2018-07-28T02:21:04.077Z,23.26
2018-07-28T02:23:30.860Z,23.26
2018-07-28T02:25:57.621Z,23.20
2018-07-28T02:28:24.417Z,23.18
2018-07-28T02:30:51.472Z,23.16
2018-07-28T02:33:18.525Z,23.14
2018-07-28T02:35:45.305Z,23.15
2018-07-28T02:38:12.144Z,23.15
2018-07-28T02:40:38.917Z,23.13
2018-07-28T02:43:05.674Z,23.13
2018-07-28T02:45:32.503Z,23.12
2018-07-28T02:50:49.388Z,23.00
2018-07-28T02:53:16.152Z,22.97
2018-07-28T02:55:42.917Z,22.96
2018-07-28T02:58:09.675Z,22.96
2018-07-28T03:00:36.446Z,22.96
2018-07-28T03:03:03.201Z,22.94
2018-07-28T03:05:30.105Z,22.92
2018-07-28T03:07:56.879Z,22.89
2018-07-28T03:10:23.653Z,22.88
2018-07-28T03:12:50.426Z,22.87
2018-07-28T03:15:33.164Z,22.85
2018-07-28T03:18:01.634Z,22.82
2018-07-28T03:20:28.601Z,22.80
2018-07-28T03:22:55.348Z,22.80
2018-07-28T03:25:22.264Z,22.79
2018-07-28T03:27:49.048Z,22.78
2018-07-28T03:30:16.174Z,22.74
2018-07-28T03:32:42.956Z,22.72
2018-07-28T03:35:09.896Z,22.74
2018-07-28T03:37:36.662Z,22.72
2018-07-28T03:40:03.805Z,22.71
2018-07-28T03:42:30.672Z,22.70
2018-07-28T03:44:57.442Z,22.70
2018-07-28T03:47:24.183Z,22.69
2018-07-28T03:49:50.941Z,22.69
2018-07-28T03:52:17.757Z,22.67
2018-07-28T03:54:44.584Z,22.68
2018-07-28T03:57:11.337Z,22.66
2018-07-28T03:59:38.174Z,22.66
2018-07-28T04:02:04.927Z,22.65
2018-07-28T04:04:31.676Z,22.63
2018-07-28T04:06:58.408Z,22.60
2018-07-28T04:09:25.177Z,22.60
2018-07-28T04:11:51.940Z,22.62
2018-07-28T04:14:18.726Z,22.62
2018-07-28T04:16:45.492Z,22.62
2018-07-28T04:19:12.249Z,22.64
2018-07-28T04:24:29.657Z,22.61
2018-07-28T04:26:56.397Z,22.65
2018-07-28T04:29:23.173Z,22.67
2018-07-28T04:31:49.860Z,22.68
2018-07-28T04:34:16.604Z,22.68
2018-07-28T04:36:43.325Z,22.68
2018-07-28T04:39:11.756Z,22.68
2018-07-28T04:41:38.664Z,22.70
2018-07-28T04:44:05.427Z,22.73
2018-07-28T04:46:32.196Z,22.73
2018-07-28T04:48:58.924Z,22.77
2018-07-28T04:51:25.658Z,22.77
2018-07-28T04:53:52.393Z,22.77
2018-07-28T04:56:19.140Z,22.79
2018-07-28T04:58:45.868Z,22.81
2018-07-28T05:01:12.620Z,22.83
2018-07-28T05:03:39.374Z,22.86
2018-07-28T05:06:06.792Z,22.90
2018-07-28T05:08:33.666Z,22.92
2018-07-28T05:11:00.460Z,22.96
2018-07-28T05:13:27.212Z,22.99
2018-07-28T05:15:54.003Z,23.04
2018-07-28T05:18:20.697Z,23.08
2018-07-28T05:20:47.469Z,23.11
2018-07-28T05:23:14.220Z,23.15
2018-07-28T05:25:40.957Z,23.19
2018-07-28T05:28:07.695Z,23.21
2018-07-28T05:30:34.500Z,23.25
2018-07-28T05:33:01.238Z,23.30
2018-07-28T05:35:28.046Z,23.28
2018-07-28T05:37:54.831Z,23.32
2018-07-28T05:40:21.577Z,23.37
2018-07-28T05:42:48.401Z,23.40
2018-07-28T05:45:15.160Z,23.41
2018-07-28T05:47:41.894Z,23.48
2018-07-28T05:50:09.169Z,23.53
2018-07-28T05:52:35.897Z,23.58
2018-07-28T05:55:02.701Z,23.65
2018-07-28T05:57:29.446Z,23.69
2018-07-28T05:59:56.204Z,23.73
2018-07-28T06:02:23.066Z,23.82
2018-07-28T06:04:49.729Z,23.89
2018-07-28T06:07:16.489Z,23.93
2018-07-28T06:09:43.260Z,23.98
2018-07-28T06:12:10.034Z,24.03
2018-07-28T06:14:36.852Z,24.08
2018-07-28T06:17:03.909Z,24.12
2018-07-28T06:19:30.736Z,24.16
2018-07-28T06:21:57.510Z,24.19
2018-07-28T06:24:24.228Z,24.22
2018-07-28T06:26:50.981Z,24.24
2018-07-28T06:29:17.822Z,24.31
2018-07-28T06:31:44.625Z,24.39
2018-07-28T06:34:11.329Z,24.47
2018-07-28T06:36:38.141Z,24.52
2018-07-28T06:39:08.194Z,24.57
2018-07-28T06:41:34.996Z,24.63
2018-07-28T06:44:01.745Z,24.72
2018-07-28T06:46:28.517Z,24.75
2018-07-28T06:48:55.276Z,24.90
2018-07-28T06:51:22.061Z,25.04
2018-07-28T06:53:49.056Z,25.10
2018-07-28T06:56:15.806Z,25.17
2018-07-28T06:58:42.709Z,25.27
2018-07-28T07:01:09.596Z,25.33
2018-07-28T07:03:36.332Z,25.41
2018-07-28T07:06:03.929Z,25.43
2018-07-28T07:08:30.648Z,25.53
2018-07-28T07:10:57.412Z,25.67
2018-07-28T07:13:24.173Z,25.79
2018-07-28T07:18:42.353Z,26.05
2018-07-28T07:21:09.180Z,26.12
2018-07-28T07:23:35.956Z,26.21
2018-07-28T07:26:02.729Z,26.28
2018-07-28T07:28:29.473Z,26.31
2018-07-28T07:30:56.294Z,26.35
2018-07-28T07:33:23.054Z,26.44
2018-07-28T07:35:49.832Z,26.50
2018-07-28T07:38:16.564Z,26.55
2018-07-28T07:40:43.416Z,26.62
2018-07-28T07:43:10.200Z,26.67
2018-07-28T07:45:37.192Z,26.76
2018-07-28T07:48:04.001Z,26.81
2018-07-28T07:50:31.078Z,26.88
2018-07-28T07:52:57.816Z,26.95
2018-07-28T07:55:24.910Z,27.06
2018-07-28T07:57:51.692Z,27.15
2018-07-28T08:00:18.462Z,27.24
2018-07-28T08:02:45.249Z,27.28
2018-07-28T08:05:12.025Z,27.36
2018-07-28T08:07:38.782Z,27.42
2018-07-28T08:10:05.873Z,27.54
2018-07-28T08:12:32.695Z,27.63
2018-07-28T08:14:59.725Z,27.70
2018-07-28T08:17:26.469Z,27.82
2018-07-28T08:19:53.218Z,27.86
2018-07-28T08:22:19.972Z,27.99
2018-07-28T08:24:46.692Z,28.09
2018-07-28T08:27:13.429Z,28.09
2018-07-28T08:29:40.156Z,28.21
2018-07-28T08:32:06.897Z,28.29
2018-07-28T08:34:33.633Z,28.43
2018-07-28T08:37:00.366Z,28.61
2018-07-28T08:39:27.110Z,28.82
2018-07-28T08:41:53.865Z,28.96
2018-07-28T08:44:20.581Z,29.05
2018-07-28T08:46:47.313Z,29.19
2018-07-28T08:49:14.089Z,29.34
2018-07-28T08:51:40.837Z,29.50
2018-07-28T08:54:07.578Z,29.63
2018-07-28T08:56:34.341Z,29.76
2018-07-28T08:59:01.097Z,29.90
2018-07-28T09:01:27.832Z,29.98
2018-07-28T09:03:54.589Z,30.09
2018-07-28T09:06:21.569Z,30.25
2018-07-28T09:08:48.305Z,30.37
2018-07-28T09:11:15.264Z,30.40
2018-07-28T09:13:42.474Z,30.33
2018-07-28T09:16:09.360Z,30.32
2018-07-28T09:18:36.136Z,30.35
2018-07-28T09:21:02.920Z,30.35
2018-07-28T09:23:29.753Z,30.25
2018-07-28T09:25:56.412Z,30.24
2018-07-28T09:28:23.165Z,30.25
2018-07-28T09:30:49.997Z,30.35
2018-07-28T09:33:16.741Z,30.38
2018-07-28T09:35:43.452Z,30.43
2018-07-28T09:38:10.197Z,30.31
2018-07-28T09:40:36.956Z,30.19
2018-07-28T09:43:03.864Z,30.07
2018-07-28T09:45:30.657Z,30.06
2018-07-28T09:47:57.397Z,30.16
2018-07-28T09:50:24.148Z,30.32
2018-07-28T09:52:50.936Z,30.46
2018-07-28T09:55:17.666Z,30.58
2018-07-28T09:57:44.524Z,30.67
2018-07-28T10:00:14.376Z,30.80
2018-07-28T10:02:41.145Z,30.92
2018-07-28T10:05:07.948Z,31.05
2018-07-28T10:07:34.714Z,31.21
2018-07-28T10:10:01.434Z,31.34
2018-07-28T10:12:28.161Z,31.51
2018-07-28T10:14:55.317Z,31.64
2018-07-28T10:17:22.316Z,31.72
2018-07-28T10:22:40.624Z,31.60
2018-07-28T10:25:07.357Z,31.76
2018-07-28T10:27:34.323Z,31.97
2018-07-28T10:30:01.273Z,31.99
2018-07-28T10:32:28.034Z,31.96
2018-07-28T10:34:54.754Z,31.96
2018-07-28T10:37:21.517Z,31.89
2018-07-28T10:39:48.253Z,31.66
2018-07-28T10:42:15.020Z,31.69
2018-07-28T10:44:41.786Z,31.78
2018-07-28T10:47:08.520Z,31.86
2018-07-28T10:49:35.246Z,31.90
2018-07-28T10:52:01.992Z,32.02
2018-07-28T10:54:28.720Z,32.10
2018-07-28T10:56:55.473Z,32.15
2018-07-28T10:59:22.214Z,32.20
2018-07-28T11:01:48.972Z,32.35
2018-07-28T11:04:15.723Z,32.53
2018-07-28T11:09:32.469Z,32.45
2018-07-28T11:11:59.228Z,32.46
2018-07-28T11:14:25.984Z,32.46
2018-07-28T11:16:52.713Z,32.62
2018-07-28T11:19:19.462Z,32.80
2018-07-28T11:21:46.193Z,32.93
2018-07-28T11:24:13.273Z,33.18
2018-07-28T11:26:39.992Z,33.27
2018-07-28T11:29:06.738Z,33.27
2018-07-28T11:31:45.317Z,33.41
2018-07-28T11:34:23.575Z,33.52
2018-07-28T11:37:01.905Z,33.50
2018-07-28T11:39:40.417Z,33.47
2018-07-28T11:42:18.869Z,33.24
2018-07-28T11:45:22.664Z,33.28
2018-07-28T11:47:49.425Z,33.36
2018-07-28T11:50:16.157Z,33.41
2018-07-28T11:52:42.902Z,33.43
2018-07-28T11:55:09.829Z,33.41
2018-07-28T11:57:36.588Z,33.44
2018-07-28T12:00:04.569Z,33.39
2018-07-28T12:02:31.301Z,33.45
2018-07-28T12:04:58.018Z,33.43
2018-07-28T12:07:24.757Z,33.41
2018-07-28T12:09:51.504Z,33.45
2018-07-28T12:12:18.303Z,33.47
2018-07-28T12:14:45.072Z,33.38
2018-07-28T12:17:11.805Z,33.20
2018-07-28T12:19:38.881Z,33.04
2018-07-28T12:22:05.833Z,32.92
2018-07-28T12:24:32.558Z,32.84
2018-07-28T12:26:59.308Z,32.71
2018-07-28T12:29:26.065Z,32.74
2018-07-28T12:31:52.824Z,32.88
2018-07-28T12:34:19.764Z,32.86
2018-07-28T12:36:46.489Z,32.99
2018-07-28T12:39:13.385Z,33.16
2018-07-28T12:41:40.127Z,33.29
2018-07-28T12:44:07.004Z,33.39
2018-07-28T12:46:33.744Z,33.46
2018-07-28T12:49:00.969Z,33.44
2018-07-28T12:51:28.065Z,33.46
2018-07-28T12:53:54.800Z,33.47
2018-07-28T12:56:21.629Z,33.41
2018-07-28T12:58:48.384Z,33.36
2018-07-28T13:01:15.109Z,33.15
2018-07-28T13:03:41.840Z,33.04
2018-07-28T13:06:08.565Z,32.92
2018-07-28T13:08:35.396Z,32.90
2018-07-28T13:11:02.152Z,32.88
2018-07-28T13:13:28.905Z,32.82
2018-07-28T13:15:55.688Z,32.80
2018-07-28T13:18:22.468Z,32.80
2018-07-28T13:20:49.208Z,32.67
2018-07-28T13:23:15.976Z,32.60
2018-07-28T13:25:42.729Z,32.44
2018-07-28T13:28:09.460Z,32.20
2018-07-28T13:30:36.212Z,31.58
2018-07-28T13:33:02.956Z,30.83
2018-07-28T13:35:29.842Z,30.25
2018-07-28T13:37:56.469Z,29.64
2018-07-28T13:40:23.198Z,29.18
2018-07-28T13:42:49.944Z,28.54
2018-07-28T13:45:16.664Z,27.64
2018-07-28T13:47:43.479Z,27.13
2018-07-28T13:50:10.208Z,26.48
2018-07-28T13:52:37.088Z,25.95
2018-07-28T13:55:03.834Z,25.68
2018-07-28T13:57:30.553Z,25.52
2018-07-28T13:59:57.297Z,25.46
2018-07-28T14:02:24.025Z,25.35
2018-07-28T14:04:50.861Z,25.33
2018-07-28T14:07:17.906Z,25.30
2018-07-28T14:09:44.737Z,25.28
2018-07-28T14:12:11.630Z,25.27
2018-07-28T14:14:38.389Z,25.23
2018-07-28T14:17:05.201Z,25.15
2018-07-28T14:19:32.149Z,25.13
2018-07-28T14:21:58.948Z,25.05
2018-07-28T14:24:25.857Z,25.01
2018-07-28T14:26:52.671Z,24.94
2018-07-28T14:29:19.696Z,24.88
2018-07-28T14:31:46.525Z,24.81
2018-07-28T14:34:13.269Z,24.76
2018-07-28T14:36:56.804Z,24.74
2018-07-28T14:39:23.593Z,24.75
2018-07-28T14:41:50.340Z,24.71
2018-07-28T14:44:17.154Z,24.70
2018-07-28T14:46:43.965Z,24.65
2018-07-28T14:49:10.713Z,24.66
2018-07-28T14:51:37.441Z,24.66
2018-07-28T14:54:04.197Z,24.53
2018-07-28T14:56:30.944Z,24.51
2018-07-28T14:58:57.736Z,24.49
2018-07-28T15:01:24.581Z,24.47
2018-07-28T15:03:51.242Z,24.42
2018-07-28T15:06:18.500Z,24.32
2018-07-28T15:08:45.216Z,24.33
2018-07-28T15:11:11.955Z,24.28
2018-07-28T15:13:38.725Z,24.26
2018-07-28T15:16:05.713Z,24.27
2018-07-28T15:18:32.464Z,24.17
2018-07-28T15:20:59.201Z,24.12
2018-07-28T15:23:26.044Z,24.13
2018-07-28T15:25:52.800Z,24.11
2018-07-28T15:28:19.539Z,24.05
2018-07-28T15:30:46.276Z,24.00
2018-07-28T15:33:13.031Z,24.00
2018-07-28T15:35:39.765Z,24.01
2018-07-28T15:38:06.543Z,23.95
2018-07-28T15:40:33.591Z,23.95
2018-07-28T15:43:00.340Z,23.96
2018-07-28T15:45:27.268Z,23.96
2018-07-28T15:47:54.204Z,23.95
2018-07-28T15:50:20.957Z,23.91
2018-07-28T15:52:47.690Z,23.86
2018-07-28T15:55:14.528Z,23.87
2018-07-28T15:57:41.527Z,23.88
2018-07-28T16:00:08.301Z,23.88
2018-07-28T16:02:35.088Z,23.87
2018-07-28T16:05:01.860Z,23.84
2018-07-28T16:07:28.647Z,23.83
2018-07-28T16:09:55.425Z,23.88
2018-07-28T16:12:22.155Z,23.90
2018-07-28T16:14:48.920Z,23.95
2018-07-28T16:17:15.680Z,23.98
2018-07-28T16:19:42.419Z,24.06
2018-07-28T16:22:09.209Z,24.13
2018-07-28T16:24:35.952Z,24.13
2018-07-28T16:27:02.709Z,24.11
2018-07-28T16:29:29.465Z,24.11
2018-07-28T16:31:58.796Z,24.08
2018-07-28T16:34:25.534Z,24.01
2018-07-28T16:36:52.264Z,23.97
2018-07-28T16:39:19.005Z,23.93
2018-07-28T16:41:45.735Z,23.92
2018-07-28T16:44:12.527Z,23.89
2018-07-28T16:46:39.269Z,23.82
2018-07-28T16:49:06.796Z,23.70
2018-07-28T16:51:33.517Z,23.58
2018-07-28T16:54:00.345Z,23.54
2018-07-28T16:56:27.073Z,23.52
2018-07-28T16:58:54.064Z,23.45
2018-07-28T17:01:20.733Z,23.46
2018-07-28T17:03:47.500Z,23.48
2018-07-28T17:06:14.258Z,23.34
2018-07-28T17:08:41.056Z,23.49
2018-07-28T17:11:07.933Z,23.54
2018-07-28T17:13:34.724Z,23.58
2018-07-28T17:16:01.728Z,23.54
2018-07-28T17:18:28.607Z,23.66
2018-07-28T17:20:56.109Z,23.82
2018-07-28T17:23:23.038Z,23.99
2018-07-28T17:25:49.780Z,24.13
2018-07-28T17:28:16.530Z,24.20
2018-07-28T17:30:43.298Z,24.25
2018-07-28T17:33:10.189Z,24.29
2018-07-28T17:35:37.040Z,24.25
2018-07-28T17:38:03.839Z,24.19
2018-07-28T17:43:21.620Z,24.05
2018-07-28T17:45:48.425Z,24.00
2018-07-28T17:48:15.757Z,23.93
2018-07-28T17:50:42.627Z,23.87
2018-07-28T17:53:09.469Z,23.81
2018-07-28T17:55:36.339Z,23.79
2018-07-28T17:58:03.143Z,23.79
2018-07-28T18:00:29.878Z,23.69
2018-07-28T18:14:30.350Z,23.37
2018-07-28T18:16:57.437Z,23.32
2018-07-28T18:19:24.513Z,23.23
2018-07-28T18:21:51.525Z,23.14
2018-07-28T18:24:18.496Z,23.06
2018-07-28T18:26:45.549Z,22.99
2018-07-28T18:29:12.549Z,22.98
2018-07-28T18:31:39.601Z,22.93
2018-07-28T18:34:06.903Z,22.95
2018-07-28T18:36:33.914Z,22.92
2018-07-28T18:39:01.389Z,22.87
2018-07-28T18:41:28.484Z,22.82
2018-07-28T18:43:55.549Z,22.70
2018-07-28T18:46:22.629Z,22.69
2018-07-28T18:48:49.633Z,22.69
2018-07-28T18:51:16.695Z,22.66
2018-07-28T18:53:43.693Z,22.64
2018-07-28T18:56:10.669Z,22.62
2018-07-28T18:58:37.648Z,22.59
2018-07-28T19:01:04.776Z,22.62
2018-07-28T19:03:31.810Z,22.62
2018-07-28T19:05:58.781Z,22.64
2018-07-28T19:08:25.785Z,22.66
2018-07-28T19:10:53.429Z,22.65
2018-07-28T19:13:26.438Z,22.65
2018-07-28T19:15:53.496Z,22.64
2018-07-28T19:18:26.230Z,22.62
2018-07-28T19:20:53.517Z,22.63
2018-07-28T19:23:26.185Z,22.62
2018-07-28T19:25:53.149Z,22.60
2018-07-28T19:28:25.925Z,22.60
2018-07-28T19:30:52.905Z,22.58
2018-07-28T19:33:19.925Z,22.56
2018-07-28T19:35:52.549Z,22.55
2018-07-28T19:38:19.589Z,22.50
2018-07-28T19:40:46.538Z,22.44
2018-07-28T19:43:13.551Z,22.38
2018-07-28T19:45:40.741Z,22.30
2018-07-28T19:48:08.037Z,22.25
2018-07-28T19:50:35.189Z,22.18
2018-07-28T19:53:02.709Z,22.15
2018-07-28T19:55:29.694Z,22.10
2018-07-28T19:57:56.709Z,22.08
2018-07-28T20:00:23.682Z,22.07
2018-07-28T20:02:50.714Z,22.07
2018-07-28T20:05:17.763Z,22.05
2018-07-28T20:07:44.808Z,22.04
2018-07-28T20:10:11.848Z,22.02
2018-07-28T20:12:39.012Z,22.01
2018-07-28T20:15:05.973Z,21.98
2018-07-28T20:17:32.921Z,21.96
2018-07-28T20:20:00.153Z,21.97
2018-07-28T20:22:27.117Z,21.97
2018-07-28T20:24:54.241Z,21.95
2018-07-28T20:27:21.185Z,21.92
2018-07-28T20:29:48.176Z,21.90
2018-07-28T20:32:15.142Z,21.89
2018-07-28T20:34:42.287Z,21.87
2018-07-28T20:37:09.314Z,21.84
2018-07-28T20:39:36.537Z,21.80
2018-07-28T20:42:03.937Z,21.76
2018-07-28T20:44:30.979Z,21.74
2018-07-28T20:46:58.016Z,21.72
2018-07-28T20:49:24.993Z,21.72
2018-07-28T20:51:52.009Z,21.68
2018-07-28T20:54:19.183Z,21.63
2018-07-28T20:56:46.270Z,21.60
2018-07-28T20:59:13.456Z,21.56
2018-07-28T21:01:40.421Z,21.56
2018-07-28T21:04:07.392Z,21.51
2018-07-28T21:06:34.383Z,21.52
2018-07-28T21:09:01.342Z,21.53
2018-07-28T21:11:28.329Z,21.54
2018-07-28T21:13:55.377Z,21.55
2018-07-28T21:16:22.670Z,21.54
2018-07-28T21:18:49.685Z,21.53
2018-07-28T21:21:16.778Z,21.50
2018-07-28T21:23:43.765Z,21.47
2018-07-28T21:26:10.749Z,21.43
2018-07-28T21:28:37.774Z,21.40
2018-07-28T21:31:04.944Z,21.37
2018-07-28T21:33:32.086Z,21.34
2018-07-28T21:35:59.117Z,21.34
2018-07-28T21:38:26.077Z,21.33
2018-07-28T21:40:53.115Z,21.29
2018-07-28T21:43:20.121Z,21.26
2018-07-28T21:45:47.125Z,21.23
2018-07-28T21:48:14.121Z,21.21
2018-07-28T21:50:41.153Z,21.19
2018-07-28T21:53:08.162Z,21.18
2018-07-28T21:55:35.355Z,21.17
2018-07-28T21:58:02.473Z,21.14
2018-07-28T22:00:34.069Z,21.12
2018-07-28T22:03:01.058Z,21.09
2018-07-28T22:05:28.462Z,21.07
2018-07-28T22:07:55.422Z,21.05
2018-07-28T22:10:22.418Z,21.05
2018-07-28T22:12:49.404Z,21.06
2018-07-28T22:15:16.473Z,21.03
2018-07-28T22:17:50.326Z,21.02
2018-07-28T22:20:17.398Z,21.01
2018-07-28T22:22:44.369Z,21.00
2018-07-28T22:25:11.333Z,20.94
2018-07-28T22:27:38.361Z,20.93
2018-07-28T22:30:05.902Z,20.92
2018-07-28T22:32:32.905Z,20.88
2018-07-28T22:34:59.881Z,20.88
2018-07-28T22:37:27.014Z,20.90
2018-07-28T22:39:53.973Z,20.86
2018-07-28T22:42:31.213Z,20.90
2018-07-28T22:44:58.375Z,20.87
2018-07-28T22:47:25.357Z,20.88
2018-07-28T22:49:52.333Z,20.87
2018-07-28T22:52:19.557Z,20.86
2018-07-28T22:54:46.529Z,20.82
2018-07-28T22:57:13.509Z,20.78
2018-07-28T22:59:40.477Z,20.75
2018-07-28T23:02:07.461Z,20.74
2018-07-28T23:04:34.472Z,20.70
2018-07-28T23:07:01.616Z,20.67
2018-07-28T23:09:28.601Z,20.64
2018-07-28T23:11:55.618Z,20.60
2018-07-28T23:14:22.644Z,20.59
2018-07-28T23:16:50.061Z,20.57
2018-07-28T23:19:17.045Z,20.53
2018-07-28T23:21:44.053Z,20.51
2018-07-28T23:24:11.025Z,20.50
2018-07-28T23:26:38.046Z,20.47
2018-07-28T23:29:05.045Z,20.47
2018-07-28T23:31:32.013Z,20.44
2018-07-28T23:33:59.148Z,20.43
2018-07-28T23:36:26.157Z,20.41
2018-07-28T23:38:53.145Z,20.39
2018-07-28T23:41:20.133Z,20.38
2018-07-28T23:43:47.110Z,20.36
2018-07-28T23:46:14.125Z,20.33
2018-07-28T23:48:41.129Z,20.30
2018-07-28T23:51:08.117Z,20.27
2018-07-28T23:53:35.109Z,20.23
2018-07-28T23:56:02.145Z,20.20
2018-07-28T23:58:29.147Z,20.16
